Terminal Aerodrome Forecast
Issued by NWS

Home | Current Version | Previous Version | Text Only | Print | Product List | Glossary On
Versions: 1 2 3 4 5 6 7 8 9 10 11 12 13 14 15 16 17
000
FTUS46 KMTR 300300 AAA
TAFOAK
TAF AMD
KOAK 300305Z 3003/3106 28012KT P6SM OVC008
     FM300600 27006KT P6SM OVC006
     FM301900 29010KT P6SM BKN012
     FM302100 29012KT P6SM SCT015=

USA.gov is the U.S. government's official web portal to all federal, state and local government web resources and services.